createdAt,value
2023-03-13T00:00:19.242Z,0
2023-03-13T00:01:19.288Z,0
2023-03-13T00:02:19.454Z,0
2023-03-13T00:03:19.343Z,0
2023-03-13T00:04:22.000Z,0
2023-03-13T00:05:19.486Z,0
2023-03-13T00:06:19.258Z,0
2023-03-13T00:07:19.224Z,0
2023-03-13T00:08:19.165Z,0
2023-03-13T00:09:19.233Z,0
2023-03-13T00:10:19.244Z,0
2023-03-13T00:11:19.388Z,0
2023-03-13T00:12:19.243Z,0
2023-03-13T00:13:19.218Z,0
2023-03-13T00:14:19.190Z,0
2023-03-13T00:15:22.272Z,0
2023-03-13T00:16:19.887Z,0
2023-03-13T00:17:19.237Z,0
2023-03-13T00:18:19.270Z,0
2023-03-13T00:19:19.343Z,0
2023-03-13T00:20:19.217Z,0
2023-03-13T00:21:19.060Z,0
2023-03-13T00:22:19.282Z,0
2023-03-13T00:23:19.099Z,0
2023-03-13T00:24:19.591Z,0
2023-03-13T00:25:19.248Z,0
2023-03-13T00:26:22.086Z,0
2023-03-13T00:27:19.121Z,0
2023-03-13T00:28:19.346Z,0
2023-03-13T00:29:19.104Z,0
2023-03-13T00:30:19.263Z,0
2023-03-13T00:31:19.992Z,0
2023-03-13T00:32:19.602Z,0
2023-03-13T00:33:19.282Z,0
2023-03-13T00:34:19.263Z,0
2023-03-13T00:35:19.486Z,0
2023-03-13T00:36:19.353Z,0
2023-03-13T00:37:22.115Z,0
2023-03-13T00:38:19.299Z,0
2023-03-13T00:39:19.264Z,0
2023-03-13T00:40:19.278Z,0
2023-03-13T00:41:19.268Z,0
2023-03-13T00:42:22.209Z,0
2023-03-13T00:43:19.367Z,0
2023-03-13T00:44:19.313Z,0
2023-03-13T00:45:19.270Z,0
2023-03-13T00:46:19.470Z,0
2023-03-13T00:47:19.329Z,0
2023-03-13T00:48:22.205Z,0
2023-03-13T00:49:19.284Z,0
2023-03-13T00:50:19.120Z,0
2023-03-13T00:51:19.342Z,0
2023-03-13T00:52:19.282Z,0
2023-03-13T00:53:20.406Z,0
2023-03-13T00:54:19.333Z,0
2023-03-13T00:55:19.144Z,0
2023-03-13T00:56:19.300Z,0
2023-03-13T00:57:19.288Z,0
2023-03-13T00:58:19.414Z,0
2023-03-13T00:59:22.274Z,0
2023-03-13T01:00:19.342Z,0
2023-03-13T01:01:19.324Z,0
2023-03-13T01:02:20.056Z,0
2023-03-13T01:03:20.037Z,0
2023-03-13T01:04:20.442Z,0
2023-03-13T01:05:19.316Z,0
2023-03-13T01:06:19.337Z,0
2023-03-13T01:07:19.338Z,0
2023-03-13T01:08:19.356Z,0
2023-03-13T01:09:19.333Z,0
2023-03-13T01:10:19.338Z,0
2023-03-13T01:11:19.313Z,0
2023-03-13T01:12:19.170Z,0
2023-03-13T01:13:19.369Z,0
2023-03-13T01:14:19.341Z,0
2023-03-13T01:15:19.339Z,0
2023-03-13T01:16:19.652Z,0
2023-03-13T01:17:19.314Z,0
2023-03-13T01:18:19.188Z,0
2023-03-13T01:19:20.380Z,0
2023-03-13T01:20:19.373Z,0
2023-03-13T01:21:19.349Z,0
2023-03-13T01:22:19.323Z,0
2023-03-13T01:23:19.405Z,0
2023-03-13T01:24:19.343Z,0
2023-03-13T01:25:19.384Z,0
2023-03-13T01:26:19.514Z,0
2023-03-13T01:27:19.341Z,0
2023-03-13T01:28:19.380Z,0
2023-03-13T01:29:19.335Z,0
2023-03-13T01:30:19.367Z,0
2023-03-13T01:31:22.384Z,0
2023-03-13T01:32:19.476Z,0
2023-03-13T01:33:19.406Z,0
2023-03-13T01:34:19.343Z,0
2023-03-13T01:35:19.391Z,0
2023-03-13T01:36:19.381Z,0
2023-03-13T01:37:19.352Z,0
2023-03-13T01:38:19.427Z,0
2023-03-13T01:39:19.386Z,0
2023-03-13T01:40:19.371Z,0
2023-03-13T01:41:19.376Z,0
2023-03-13T01:42:22.199Z,0
2023-03-13T01:43:35.280Z,0
2023-03-13T01:44:19.343Z,0
2023-03-13T01:45:19.356Z,0
2023-03-13T01:46:19.406Z,0
2023-03-13T01:47:22.268Z,0
2023-03-13T01:48:19.210Z,0
2023-03-13T01:49:19.409Z,0
2023-03-13T01:50:19.358Z,0
2023-03-13T01:51:19.375Z,0
2023-03-13T01:52:19.411Z,0
2023-03-13T01:53:22.305Z,0
2023-03-13T01:54:19.417Z,0
2023-03-13T01:55:19.428Z,0
2023-03-13T01:56:19.384Z,0
2023-03-13T01:57:19.432Z,0
2023-03-13T01:58:22.529Z,0
2023-03-13T01:59:19.421Z,0
2023-03-13T02:00:19.384Z,0
2023-03-13T02:01:19.379Z,0
2023-03-13T02:02:19.433Z,0
2023-03-13T02:03:19.796Z,0
2023-03-13T02:04:22.442Z,0
2023-03-13T02:05:19.396Z,0
2023-03-13T02:06:19.398Z,0
2023-03-13T02:07:19.411Z,0
2023-03-13T02:08:19.400Z,0
2023-03-13T02:09:22.452Z,0
2023-03-13T02:10:19.426Z,0
2023-03-13T02:11:19.450Z,0
2023-03-13T02:12:19.432Z,0
2023-03-13T02:13:19.281Z,0
2023-03-13T02:14:21.317Z,0
2023-03-13T02:15:22.500Z,0
2023-03-13T02:16:19.669Z,0
2023-03-13T02:17:19.885Z,0
2023-03-13T02:18:19.244Z,0
2023-03-13T02:19:19.468Z,0
2023-03-13T02:20:20.487Z,0
2023-03-13T02:21:19.411Z,0
2023-03-13T02:22:19.421Z,0
2023-03-13T02:23:22.144Z,0
2023-03-13T02:24:19.464Z,0
2023-03-13T02:25:19.276Z,0
2023-03-13T02:26:19.252Z,0
2023-03-13T02:27:19.443Z,0
2023-03-13T02:28:19.491Z,0
2023-03-13T02:29:19.473Z,0
2023-03-13T02:30:19.410Z,0
2023-03-13T02:31:22.693Z,0
2023-03-13T02:32:19.370Z,0
2023-03-13T02:33:19.283Z,0
2023-03-13T02:34:19.297Z,0
2023-03-13T02:35:19.544Z,0
2023-03-13T02:36:19.611Z,0
2023-03-13T02:37:28.172Z,0
2023-03-13T02:38:19.414Z,0
2023-03-13T02:39:19.469Z,0
2023-03-13T02:40:19.449Z,0
2023-03-13T02:41:19.423Z,0
2023-03-13T02:42:22.390Z,0
2023-03-13T02:43:19.460Z,0
2023-03-13T02:44:19.479Z,0
2023-03-13T02:45:19.531Z,0
2023-03-13T02:46:19.903Z,0
2023-03-13T02:47:19.480Z,0
2023-03-13T02:48:19.266Z,0
2023-03-13T02:49:19.485Z,0
2023-03-13T02:50:19.499Z,0
2023-03-13T02:51:19.462Z,0
2023-03-13T02:52:19.468Z,0
2023-03-13T02:53:22.228Z,0
2023-03-13T02:54:19.306Z,0
2023-03-13T02:55:19.323Z,0
2023-03-13T02:56:19.453Z,0
2023-03-13T02:57:19.467Z,0
2023-03-13T02:58:19.546Z,0
2023-03-13T02:59:19.503Z,0
2023-03-13T03:00:19.520Z,0
2023-03-13T03:01:19.944Z,0
2023-03-13T03:02:19.474Z,0
2023-03-13T03:03:19.475Z,0
2023-03-13T03:04:23.148Z,0
2023-03-13T03:05:19.533Z,0
2023-03-13T03:06:19.502Z,0
2023-03-13T03:07:19.380Z,0
2023-03-13T03:08:19.589Z,0
2023-03-13T03:09:19.529Z,0
2023-03-13T03:10:19.507Z,0
2023-03-13T03:11:19.518Z,0
2023-03-13T03:12:19.492Z,0
2023-03-13T03:13:19.476Z,0
2023-03-13T03:14:19.671Z,0
2023-03-13T03:15:22.348Z,0
2023-03-13T03:16:19.921Z,0
2023-03-13T03:17:19.500Z,0
2023-03-13T03:18:19.488Z,0
2023-03-13T03:19:19.492Z,0
2023-03-13T03:20:20.465Z,0
2023-03-13T03:21:19.510Z,0
2023-03-13T03:22:19.604Z,0
2023-03-13T03:23:19.562Z,0
2023-03-13T03:24:19.495Z,0
2023-03-13T03:25:19.554Z,0
2023-03-13T03:26:22.121Z,0
2023-03-13T03:27:19.578Z,0
2023-03-13T03:28:19.476Z,0
2023-03-13T03:29:19.527Z,0
2023-03-13T03:30:19.536Z,0
2023-03-13T03:31:22.670Z,0
2023-03-13T03:32:19.563Z,0
2023-03-13T03:33:19.652Z,0
2023-03-13T03:34:19.526Z,0
2023-03-13T03:35:19.551Z,0
2023-03-13T03:36:19.626Z,0
2023-03-13T03:37:19.521Z,0
2023-03-13T03:38:19.544Z,0
2023-03-13T03:39:19.592Z,0
2023-03-13T03:40:19.566Z,0
2023-03-13T03:41:19.550Z,0
2023-03-13T03:42:19.533Z,0
2023-03-13T03:43:19.612Z,0
2023-03-13T03:44:19.539Z,0
2023-03-13T03:45:19.554Z,0
2023-03-13T03:46:20.028Z,0
2023-03-13T03:47:19.808Z,0
2023-03-13T03:48:19.567Z,0
2023-03-13T03:49:19.554Z,0
2023-03-13T03:50:19.574Z,0
2023-03-13T03:51:19.563Z,0
2023-03-13T03:52:19.578Z,0
2023-03-13T03:53:19.583Z,0
2023-03-13T03:54:19.545Z,0
2023-03-13T03:55:19.649Z,0
2023-03-13T03:56:19.571Z,0
2023-03-13T03:57:19.555Z,0
2023-03-13T03:58:22.646Z,0
2023-03-13T03:59:19.526Z,0
2023-03-13T04:00:19.674Z,0
2023-03-13T04:01:19.554Z,0
2023-03-13T04:02:20.014Z,0
2023-03-13T04:03:19.881Z,0
2023-03-13T04:04:19.559Z,0
2023-03-13T04:05:19.610Z,0
2023-03-13T04:06:19.551Z,0
2023-03-13T04:07:19.603Z,0
2023-03-13T04:08:19.577Z,0
2023-03-13T04:09:22.618Z,0
2023-03-13T04:10:19.627Z,0
2023-03-13T04:11:19.578Z,0
2023-03-13T04:12:19.724Z,0
2023-03-13T04:13:19.551Z,0
2023-03-13T04:14:22.642Z,0
2023-03-13T04:15:19.606Z,0
2023-03-13T04:16:19.889Z,0
2023-03-13T04:17:19.589Z,0
2023-03-13T04:18:19.651Z,0
2023-03-13T04:19:19.583Z,0
2023-03-13T04:20:22.811Z,0
2023-03-13T04:21:19.619Z,0
2023-03-13T04:22:19.596Z,0
2023-03-13T04:23:19.579Z,0
2023-03-13T04:24:19.615Z,0
2023-03-13T04:25:22.414Z,0
2023-03-13T04:26:19.572Z,0
2023-03-13T04:27:19.696Z,0
2023-03-13T04:28:19.640Z,0
2023-03-13T04:29:19.577Z,0
2023-03-13T04:30:23.140Z,0
2023-03-13T04:31:21.011Z,0
2023-03-13T04:32:19.630Z,0
2023-03-13T04:33:19.595Z,0
2023-03-13T04:34:19.600Z,0
2023-03-13T04:35:20.033Z,0
2023-03-13T04:36:22.963Z,0
2023-03-13T04:37:19.608Z,0
2023-03-13T04:38:19.584Z,0
2023-03-13T04:39:19.597Z,0
2023-03-13T04:40:19.664Z,0
2023-03-13T04:41:19.637Z,0
2023-03-13T04:42:22.649Z,0
2023-03-13T04:43:19.651Z,0
2023-03-13T04:44:19.624Z,0
2023-03-13T04:45:19.615Z,0
2023-03-13T04:46:19.893Z,0
2023-03-13T04:47:20.700Z,0
2023-03-13T04:48:19.603Z,0
2023-03-13T04:49:19.697Z,0
2023-03-13T04:50:19.632Z,0
2023-03-13T04:51:19.716Z,0
2023-03-13T04:52:19.654Z,0
2023-03-13T04:53:22.360Z,0
2023-03-13T04:54:19.634Z,0
2023-03-13T04:55:19.627Z,0
2023-03-13T04:56:20.325Z,0
2023-03-13T04:57:19.723Z,0
2023-03-13T04:58:22.625Z,0
2023-03-13T04:59:19.686Z,0
2023-03-13T05:00:19.697Z,0
2023-03-13T05:01:19.814Z,0
2023-03-13T05:02:19.669Z,0
2023-03-13T05:03:19.727Z,0
2023-03-13T05:04:22.672Z,0
2023-03-13T05:05:20.090Z,0
2023-03-13T05:06:19.774Z,0
2023-03-13T05:07:19.683Z,0
2023-03-13T05:08:19.678Z,0
2023-03-13T05:09:22.668Z,0
2023-03-13T05:10:19.690Z,0
2023-03-13T05:11:19.679Z,0
2023-03-13T05:12:19.674Z,0
2023-03-13T05:13:19.710Z,0
2023-03-13T05:14:19.677Z,0
2023-03-13T05:15:19.716Z,0
2023-03-13T05:16:20.142Z,0
2023-03-13T05:17:19.656Z,0
2023-03-13T05:18:19.678Z,0
2023-03-13T05:19:19.709Z,0
2023-03-13T05:20:22.622Z,0
2023-03-13T05:21:19.693Z,0
2023-03-13T05:22:19.694Z,0
2023-03-13T05:23:19.711Z,0
2023-03-13T05:24:22.656Z,0
2023-03-13T05:25:19.673Z,0
2023-03-13T05:26:19.734Z,0
2023-03-13T05:27:19.698Z,0
2023-03-13T05:28:19.695Z,0
2023-03-13T05:29:19.725Z,0
2023-03-13T05:30:19.715Z,0
2023-03-13T05:31:22.868Z,0
2023-03-13T05:32:19.729Z,4
2023-03-13T05:33:19.927Z,4
2023-03-13T05:34:19.723Z,0
2023-03-13T05:35:19.896Z,0
2023-03-13T05:36:20.538Z,0
2023-03-13T05:37:19.765Z,4
2023-03-13T05:38:19.730Z,0
2023-03-13T05:39:19.731Z,4
2023-03-13T05:40:19.772Z,4
2023-03-13T05:41:19.718Z,0
2023-03-13T05:42:22.716Z,4
2023-03-13T05:43:19.697Z,4
2023-03-13T05:44:19.714Z,4
2023-03-13T05:45:19.773Z,4
2023-03-13T05:46:19.997Z,4
2023-03-13T05:47:22.515Z,8
2023-03-13T05:48:19.747Z,4
2023-03-13T05:49:19.708Z,4
2023-03-13T05:50:19.760Z,8
2023-03-13T05:51:19.752Z,8
2023-03-13T05:52:19.760Z,8
2023-03-13T05:53:22.810Z,12
2023-03-13T05:54:22.358Z,8
2023-03-13T05:55:19.736Z,12
2023-03-13T05:56:19.825Z,12
2023-03-13T05:57:19.725Z,12
2023-03-13T05:58:22.514Z,12
2023-03-13T05:59:19.740Z,16
2023-03-13T06:00:19.735Z,12
2023-03-13T06:01:19.765Z,16
2023-03-13T06:02:19.704Z,16
2023-03-13T06:03:21.482Z,12
2023-03-13T06:04:20.459Z,16
2023-03-13T06:05:19.804Z,16
2023-03-13T06:06:19.773Z,16
2023-03-13T06:07:19.776Z,16
2023-03-13T06:08:21.705Z,12
2023-03-13T06:09:19.769Z,16
2023-03-13T06:10:19.769Z,16
2023-03-13T06:11:19.769Z,20
2023-03-13T06:12:19.748Z,20
2023-03-13T06:13:26.982Z,24
2023-03-13T06:14:19.738Z,24
2023-03-13T06:15:19.742Z,28
2023-03-13T06:16:20.107Z,28
2023-03-13T06:17:19.809Z,32
2023-03-13T06:18:19.727Z,40
2023-03-13T06:19:19.822Z,44
2023-03-13T06:20:19.818Z,52
2023-03-13T06:21:19.816Z,56
2023-03-13T06:22:20.818Z,64
2023-03-13T06:23:19.813Z,72
2023-03-13T06:24:19.744Z,72
2023-03-13T06:25:22.816Z,68
2023-03-13T06:26:19.878Z,64
2023-03-13T06:27:19.774Z,64
2023-03-13T06:28:19.778Z,60
2023-03-13T06:29:19.752Z,56
2023-03-13T06:30:19.761Z,48
2023-03-13T06:31:20.112Z,40
2023-03-13T06:32:20.263Z,32
2023-03-13T06:33:20.117Z,28
2023-03-13T06:34:19.775Z,28
2023-03-13T06:35:19.819Z,24
2023-03-13T06:36:23.150Z,20
2023-03-13T06:37:19.840Z,20
2023-03-13T06:38:19.788Z,24
2023-03-13T06:39:19.776Z,24
2023-03-13T06:40:19.827Z,24
2023-03-13T06:41:22.712Z,24
2023-03-13T06:42:20.801Z,28
2023-03-13T06:43:19.843Z,32
2023-03-13T06:44:19.869Z,32
2023-03-13T06:45:19.862Z,36
2023-03-13T06:46:20.734Z,40
2023-03-13T06:47:25.523Z,44
2023-03-13T06:48:19.803Z,44
2023-03-13T06:49:19.801Z,40
2023-03-13T06:50:19.806Z,44
2023-03-13T06:51:19.850Z,44
2023-03-13T06:52:43.246Z,44
2023-03-13T06:53:19.880Z,44
2023-03-13T06:54:19.817Z,44
2023-03-13T06:55:19.903Z,44
2023-03-13T06:56:19.853Z,48
2023-03-13T06:57:19.808Z,48
2023-03-13T06:58:37.665Z,48
2023-03-13T06:59:19.881Z,52
2023-03-13T07:00:19.837Z,48
2023-03-13T07:01:20.259Z,48
2023-03-13T07:02:19.806Z,52
2023-03-13T07:03:22.585Z,52
2023-03-13T07:04:20.266Z,48
2023-03-13T07:05:20.014Z,52
2023-03-13T07:06:19.844Z,48
2023-03-13T07:07:36.890Z,44
2023-03-13T07:08:19.802Z,40
2023-03-13T07:09:22.909Z,44
2023-03-13T07:10:19.803Z,44
2023-03-13T07:11:19.957Z,44
2023-03-13T07:12:19.829Z,44
2023-03-13T07:13:19.863Z,48
2023-03-13T07:14:24.422Z,56
2023-03-13T07:15:19.908Z,56
2023-03-13T07:16:20.452Z,68
2023-03-13T07:17:20.135Z,76
2023-03-13T07:18:19.950Z,72
2023-03-13T07:19:20.036Z,76
2023-03-13T07:20:25.615Z,80
2023-03-13T07:21:19.894Z,88
2023-03-13T07:22:19.890Z,104
2023-03-13T07:23:19.927Z,120
2023-03-13T07:24:20.120Z,124
2023-03-13T07:25:22.766Z,140
2023-03-13T07:26:20.103Z,140
2023-03-13T07:27:20.087Z,136
2023-03-13T07:28:19.861Z,128
2023-03-13T07:29:19.968Z,124
2023-03-13T07:30:19.920Z,116
2023-03-13T07:31:23.793Z,104
2023-03-13T07:32:20.052Z,92
2023-03-13T07:33:19.891Z,88
2023-03-13T07:34:19.929Z,88
2023-03-13T07:35:19.891Z,92
2023-03-13T07:36:23.319Z,100
2023-03-13T07:37:19.870Z,92
2023-03-13T07:38:19.939Z,88
2023-03-13T07:39:19.882Z,92
2023-03-13T07:40:19.935Z,96
2023-03-13T07:41:19.911Z,96
2023-03-13T07:42:20.007Z,100
2023-03-13T07:43:19.912Z,96
2023-03-13T07:44:19.937Z,104
2023-03-13T07:45:20.434Z,100
2023-03-13T07:46:20.411Z,108
2023-03-13T07:47:22.710Z,112
2023-03-13T07:48:19.896Z,120
2023-03-13T07:49:20.350Z,120
2023-03-13T07:50:20.101Z,112
2023-03-13T07:51:25.169Z,112
2023-03-13T07:52:19.946Z,124
2023-03-13T07:53:26.196Z,132
2023-03-13T07:54:19.876Z,148
2023-03-13T07:55:19.922Z,152
2023-03-13T07:56:20.944Z,148
2023-03-13T07:57:20.414Z,124
2023-03-13T07:58:23.130Z,116
2023-03-13T07:59:19.949Z,116
2023-03-13T08:00:20.295Z,120
2023-03-13T08:01:19.951Z,120
2023-03-13T08:02:20.185Z,120
2023-03-13T08:03:20.193Z,120
2023-03-13T08:04:19.931Z,116
2023-03-13T08:05:19.904Z,116
2023-03-13T08:06:19.954Z,116
2023-03-13T08:07:19.966Z,116
2023-03-13T08:08:20.157Z,116
2023-03-13T08:09:23.360Z,116
2023-03-13T08:10:20.308Z,120
2023-03-13T08:11:19.981Z,112
2023-03-13T08:12:20.680Z,116
2023-03-13T08:13:19.909Z,124
2023-03-13T08:14:23.438Z,132
2023-03-13T08:15:19.916Z,132
2023-03-13T08:16:20.174Z,128
2023-03-13T08:17:19.988Z,136
2023-03-13T08:18:19.926Z,140
2023-03-13T08:19:19.980Z,132
2023-03-13T08:20:22.741Z,128
2023-03-13T08:21:19.928Z,124
2023-03-13T08:22:19.973Z,124
2023-03-13T08:23:19.940Z,124
2023-03-13T08:24:19.962Z,128
2023-03-13T08:25:21.058Z,124
2023-03-13T08:26:20.022Z,124
2023-03-13T08:27:20.114Z,124
2023-03-13T08:28:19.967Z,120
2023-03-13T08:29:19.934Z,120
2023-03-13T08:30:19.978Z,128
2023-03-13T08:31:20.548Z,136
2023-03-13T08:32:20.026Z,148
2023-03-13T08:33:19.987Z,156
2023-03-13T08:34:20.013Z,160
2023-03-13T08:35:19.966Z,152
2023-03-13T08:36:19.948Z,144
2023-03-13T08:37:19.993Z,140
2023-03-13T08:38:19.963Z,136
2023-03-13T08:39:19.979Z,136
2023-03-13T08:40:19.996Z,132
2023-03-13T08:41:19.987Z,124
2023-03-13T08:42:20.088Z,124
2023-03-13T08:43:20.005Z,132
2023-03-13T08:44:19.997Z,132
2023-03-13T08:45:20.009Z,132
2023-03-13T08:46:23.126Z,140
2023-03-13T08:47:20.109Z,148
2023-03-13T08:48:19.984Z,156
2023-03-13T08:49:20.258Z,180
2023-03-13T08:50:20.036Z,204
2023-03-13T08:51:20.154Z,216
2023-03-13T08:52:23.135Z,248
2023-03-13T08:53:19.997Z,280
2023-03-13T08:54:20.060Z,288
2023-03-13T08:55:20.023Z,276
2023-03-13T08:56:20.046Z,264
2023-03-13T08:57:20.049Z,260
2023-03-13T08:58:20.013Z,264
2023-03-13T08:59:20.098Z,280
2023-03-13T09:00:20.101Z,300
2023-03-13T09:01:20.045Z,312
2023-03-13T09:02:20.323Z,316
2023-03-13T09:03:22.979Z,300
2023-03-13T09:04:20.137Z,284
2023-03-13T09:05:20.046Z,268
2023-03-13T09:06:20.051Z,248
2023-03-13T09:07:20.090Z,252
2023-03-13T09:08:22.801Z,280
2023-03-13T09:09:24.516Z,312
2023-03-13T09:10:20.006Z,356
2023-03-13T09:11:20.125Z,380
2023-03-13T09:12:36.579Z,400
2023-03-13T09:13:20.022Z,408
2023-03-13T09:14:22.887Z,408
2023-03-13T09:15:20.050Z,396
2023-03-13T09:16:20.672Z,396
2023-03-13T09:17:20.085Z,396
2023-03-13T09:18:20.260Z,392
2023-03-13T09:19:23.086Z,384
2023-03-13T09:20:20.054Z,380
2023-03-13T09:21:20.088Z,368
2023-03-13T09:22:20.047Z,376
2023-03-13T09:23:20.112Z,380
2023-03-13T09:24:20.117Z,388
2023-03-13T09:25:23.210Z,400
2023-03-13T09:26:22.729Z,400
2023-03-13T09:27:20.067Z,416
2023-03-13T09:28:20.177Z,436
2023-03-13T09:29:20.038Z,464
2023-03-13T09:30:23.256Z,484
2023-03-13T09:31:20.722Z,492
2023-03-13T09:32:19.979Z,488
2023-03-13T09:33:20.084Z,480
2023-03-13T09:34:20.075Z,508
2023-03-13T09:35:20.064Z,472
2023-03-13T09:36:24.120Z,480
2023-03-13T09:37:20.097Z,496
2023-03-13T09:38:19.951Z,512
2023-03-13T09:39:20.095Z,520
2023-03-13T09:40:20.104Z,572
2023-03-13T09:41:22.864Z,600
2023-03-13T09:42:20.168Z,644
2023-03-13T09:43:20.099Z,712
2023-03-13T09:44:20.252Z,968
2023-03-13T09:45:20.131Z,616
2023-03-13T09:46:20.492Z,588
2023-03-13T09:47:23.141Z,556
2023-03-13T09:48:20.118Z,540
2023-03-13T09:49:22.771Z,540
2023-03-13T09:50:20.098Z,500
2023-03-13T09:51:19.955Z,440
2023-03-13T09:52:22.874Z,412
2023-03-13T09:53:20.187Z,368
2023-03-13T09:54:19.922Z,332
2023-03-13T09:55:20.145Z,304
2023-03-13T09:56:20.094Z,276
2023-03-13T09:57:20.114Z,264
2023-03-13T09:58:23.208Z,240
2023-03-13T09:59:19.939Z,212
2023-03-13T10:00:20.136Z,192
2023-03-13T10:01:20.332Z,188
2023-03-13T10:02:19.987Z,200
2023-03-13T10:03:23.478Z,216
2023-03-13T10:04:20.365Z,228
2023-03-13T10:05:20.189Z,220
2023-03-13T10:06:20.106Z,208
2023-03-13T10:07:20.137Z,208
2023-03-13T10:08:20.223Z,212
2023-03-13T10:09:20.109Z,216
2023-03-13T10:10:21.060Z,216
2023-03-13T10:11:20.123Z,212
2023-03-13T10:12:19.991Z,196
2023-03-13T10:13:20.137Z,188
2023-03-13T10:14:23.124Z,188
2023-03-13T10:15:20.159Z,180
2023-03-13T10:16:23.020Z,160
2023-03-13T10:17:20.163Z,152
2023-03-13T10:18:20.232Z,144
2023-03-13T10:19:20.220Z,140
2023-03-13T10:20:20.319Z,136
2023-03-13T10:21:20.202Z,144
2023-03-13T10:22:20.175Z,148
2023-03-13T10:23:20.151Z,144
2023-03-13T10:24:20.193Z,144
2023-03-13T10:25:22.908Z,148
2023-03-13T10:26:20.178Z,156
2023-03-13T10:27:20.163Z,164
2023-03-13T10:28:20.207Z,148
2023-03-13T10:29:20.148Z,136
2023-03-13T10:30:20.222Z,128
2023-03-13T10:31:20.366Z,124
2023-03-13T10:32:20.340Z,124
2023-03-13T10:33:20.146Z,120
2023-03-13T10:34:20.218Z,120
2023-03-13T10:35:20.209Z,124
2023-03-13T10:36:21.412Z,140
2023-03-13T10:37:20.179Z,148
2023-03-13T10:38:20.254Z,144
2023-03-13T10:39:20.207Z,144
2023-03-13T10:40:20.268Z,152
2023-03-13T10:41:23.201Z,176
2023-03-13T10:42:20.184Z,188
2023-03-13T10:43:22.357Z,184
2023-03-13T10:44:20.224Z,176
2023-03-13T10:45:20.204Z,172
2023-03-13T10:46:20.344Z,176
2023-03-13T10:47:23.390Z,164
2023-03-13T10:48:20.229Z,152
2023-03-13T10:49:20.206Z,168
2023-03-13T10:50:20.051Z,196
2023-03-13T10:51:20.190Z,216
2023-03-13T10:52:21.284Z,204
2023-03-13T10:53:20.222Z,192
2023-03-13T10:54:20.277Z,180
2023-03-13T10:55:20.219Z,156
2023-03-13T10:56:20.230Z,140
2023-03-13T10:57:20.234Z,132
2023-03-13T10:58:20.228Z,144
2023-03-13T10:59:20.229Z,164
2023-03-13T11:00:20.245Z,176
2023-03-13T11:01:20.241Z,168
2023-03-13T11:02:20.390Z,172
2023-03-13T11:03:20.954Z,180
2023-03-13T11:04:20.215Z,200
2023-03-13T11:05:20.501Z,212
2023-03-13T11:06:20.222Z,272
2023-03-13T11:07:20.241Z,364
2023-03-13T11:08:20.510Z,368
2023-03-13T11:09:20.214Z,340
2023-03-13T11:10:20.375Z,332
2023-03-13T11:11:20.223Z,356
2023-03-13T11:12:20.394Z,372
2023-03-13T11:13:38.541Z,404
2023-03-13T11:14:20.248Z,380
2023-03-13T11:15:20.484Z,376
2023-03-13T11:16:20.720Z,392
2023-03-13T11:17:20.311Z,432
2023-03-13T11:18:20.287Z,476
2023-03-13T11:19:23.351Z,480
2023-03-13T11:20:20.367Z,488
2023-03-13T11:21:25.305Z,436
2023-03-13T11:22:20.552Z,396
2023-03-13T11:23:20.309Z,388
2023-03-13T11:24:20.281Z,396
2023-03-13T11:25:22.404Z,400
2023-03-13T11:26:20.291Z,388
2023-03-13T11:27:20.433Z,380
2023-03-13T11:28:20.352Z,352
2023-03-13T11:29:20.560Z,324
2023-03-13T11:30:23.133Z,308
2023-03-13T11:31:20.619Z,296
2023-03-13T11:32:20.359Z,276
2023-03-13T11:33:20.283Z,260
2023-03-13T11:34:20.285Z,260
2023-03-13T11:35:23.177Z,236
2023-03-13T11:36:20.531Z,208
2023-03-13T11:37:20.255Z,184
2023-03-13T11:38:20.366Z,168
2023-03-13T11:39:20.352Z,168
2023-03-13T11:40:20.287Z,188
2023-03-13T11:41:24.343Z,196
2023-03-13T11:42:20.254Z,180
2023-03-13T11:43:31.786Z,160
2023-03-13T11:44:20.317Z,160
2023-03-13T11:45:20.344Z,140
2023-03-13T11:46:24.008Z,132
2023-03-13T11:47:20.362Z,132
2023-03-13T11:48:20.315Z,140
2023-03-13T11:49:20.271Z,140
2023-03-13T11:50:20.548Z,152
2023-03-13T11:51:23.164Z,168
2023-03-13T11:52:23.273Z,184
2023-03-13T11:53:21.142Z,180
2023-03-13T11:54:20.287Z,180
2023-03-13T11:55:20.373Z,192
2023-03-13T11:56:20.361Z,220
2023-03-13T11:57:23.127Z,252
2023-03-13T11:58:20.330Z,264
2023-03-13T11:59:20.343Z,304
2023-03-13T12:00:20.351Z,388
2023-03-13T12:01:20.612Z,392
2023-03-13T12:02:20.652Z,368
2023-03-13T12:03:23.474Z,368
2023-03-13T12:04:20.358Z,356
2023-03-13T12:05:20.558Z,296
2023-03-13T12:06:36.350Z,280
2023-03-13T12:07:20.335Z,276
2023-03-13T12:08:23.302Z,340
2023-03-13T12:09:20.311Z,376
2023-03-13T12:10:20.393Z,396
2023-03-13T12:11:20.429Z,424
2023-03-13T12:12:20.319Z,444
2023-03-13T12:13:20.348Z,476
2023-03-13T12:14:23.483Z,524
2023-03-13T12:15:23.508Z,808
2023-03-13T12:16:20.553Z,580
2023-03-13T12:17:20.554Z,536
2023-03-13T12:18:20.420Z,516
2023-03-13T12:19:23.507Z,516
2023-03-13T12:20:20.405Z,496
2023-03-13T12:21:20.368Z,480
2023-03-13T12:22:20.493Z,428
2023-03-13T12:23:20.203Z,416
2023-03-13T12:24:20.331Z,412
2023-03-13T12:25:20.559Z,404
2023-03-13T12:26:20.337Z,396
2023-03-13T12:27:20.399Z,384
2023-03-13T12:28:23.474Z,384
2023-03-13T12:29:20.366Z,376
2023-03-13T12:30:23.297Z,364
2023-03-13T12:31:20.800Z,340
2023-03-13T12:32:20.474Z,328
2023-03-13T12:33:21.823Z,340
2023-03-13T12:34:20.381Z,432
2023-03-13T12:35:20.404Z,764
2023-03-13T12:36:20.602Z,1176
2023-03-13T12:37:20.413Z,1056
2023-03-13T12:38:20.511Z,1152
2023-03-13T12:39:20.374Z,1124
2023-03-13T12:40:20.420Z,1052
2023-03-13T12:41:23.460Z,1068
2023-03-13T12:42:20.372Z,1056
2023-03-13T12:43:20.413Z,1040
2023-03-13T12:44:20.407Z,1040
2023-03-13T12:45:20.642Z,1052
2023-03-13T12:46:20.739Z,1028
2023-03-13T12:47:20.512Z,1044
2023-03-13T12:48:20.949Z,1028
2023-03-13T12:49:20.413Z,1020
2023-03-13T12:50:21.485Z,1028
2023-03-13T12:51:20.434Z,1012
2023-03-13T12:52:23.240Z,1004
2023-03-13T12:53:23.244Z,1000
2023-03-13T12:54:20.775Z,996
2023-03-13T12:55:20.428Z,984
2023-03-13T12:56:20.638Z,956
2023-03-13T12:57:20.565Z,984
2023-03-13T12:58:20.269Z,972
2023-03-13T12:59:20.410Z,944
2023-03-13T13:00:20.506Z,944
2023-03-13T13:01:20.641Z,952
2023-03-13T13:02:20.449Z,784
2023-03-13T13:03:23.562Z,920
2023-03-13T13:04:20.750Z,1056
2023-03-13T13:05:20.432Z,1032
2023-03-13T13:06:20.564Z,1032
2023-03-13T13:07:20.427Z,1020
2023-03-13T13:08:21.866Z,960
2023-03-13T13:09:20.455Z,968
2023-03-13T13:10:20.535Z,380
2023-03-13T13:11:21.997Z,1040
2023-03-13T13:12:20.489Z,1012
2023-03-13T13:13:20.526Z,1036
2023-03-13T13:14:23.510Z,376
2023-03-13T13:15:20.468Z,428
2023-03-13T13:16:20.809Z,1020
2023-03-13T13:17:23.204Z,980
2023-03-13T13:18:20.311Z,860
2023-03-13T13:19:21.458Z,568
2023-03-13T13:20:20.476Z,820
2023-03-13T13:21:20.435Z,776
2023-03-13T13:22:20.707Z,748
2023-03-13T13:23:20.514Z,852
2023-03-13T13:24:20.471Z,736
2023-03-13T13:25:20.497Z,872
2023-03-13T13:26:20.485Z,904
2023-03-13T13:27:20.457Z,920
2023-03-13T13:28:20.490Z,908
2023-03-13T13:29:20.117Z,832
2023-03-13T13:30:20.478Z,956
2023-03-13T13:31:21.140Z,420
2023-03-13T13:32:21.000Z,880
2023-03-13T13:33:20.602Z,816
2023-03-13T13:34:20.378Z,876
2023-03-13T13:35:20.352Z,1020
2023-03-13T13:36:20.589Z,1024
2023-03-13T13:37:20.563Z,992
2023-03-13T13:38:20.560Z,1048
2023-03-13T13:39:20.508Z,960
2023-03-13T13:40:20.978Z,988
2023-03-13T13:41:20.710Z,980
2023-03-13T13:42:20.520Z,1036
2023-03-13T13:43:20.501Z,996
2023-03-13T13:44:20.553Z,1032
2023-03-13T13:45:20.531Z,1056
2023-03-13T13:46:23.790Z,1016
2023-03-13T13:47:20.519Z,908
2023-03-13T13:48:20.542Z,832
2023-03-13T13:49:20.568Z,740
2023-03-13T13:50:20.505Z,760
2023-03-13T13:51:20.508Z,800
2023-03-13T13:52:20.548Z,792
2023-03-13T13:53:20.509Z,844
2023-03-13T13:54:20.629Z,824
2023-03-13T13:55:20.507Z,840
2023-03-13T13:56:20.524Z,660
2023-03-13T13:57:23.792Z,532
2023-03-13T13:58:20.548Z,672
2023-03-13T13:59:20.569Z,612
2023-03-13T14:00:20.559Z,468
2023-03-13T14:01:20.769Z,456
2023-03-13T14:02:23.573Z,424
2023-03-13T14:03:20.599Z,416
2023-03-13T14:04:21.560Z,432
2023-03-13T14:05:21.064Z,520
2023-03-13T14:06:20.529Z,488
2023-03-13T14:07:20.554Z,484
2023-03-13T14:08:24.500Z,460
2023-03-13T14:09:20.567Z,452
2023-03-13T14:10:20.567Z,484
2023-03-13T14:11:20.540Z,452
2023-03-13T14:12:20.626Z,524